Time;durP1;ratioP1;P1;durP2;ratioP2;P2;SDS_P1;SDS_P2;PMS_P1;PMS_P2;Temp;Humidity;BMP_temperature;BMP_pressure;BME280_temperature;BME280_humidity;BME280_pressure;Samples;Min_cycle;Max_cycle;Signal;HPM_P1;HPM_P2
2021/10/13 00:00:18;;;;;;;6.10;2.60;;;8.80;99.40;;;;;;5060031;28;20029;-78
2021/10/13 00:02:45;;;;;;;5.38;2.38;;;8.80;99.40;;;;;;5063992;28;20041;-78
2021/10/13 00:05:10;;;;;;;4.95;2.00;;;8.70;99.40;;;;;;5061422;28;20033;-76
2021/10/13 00:07:36;;;;;;;3.15;2.53;;;8.70;99.40;;;;;;5062996;28;20035;-79
2021/10/13 00:10:03;;;;;;;5.97;1.95;;;8.70;99.40;;;;;;5058066;28;20032;-79
2021/10/13 00:12:32;;;;;;;3.38;2.50;;;8.70;99.50;;;;;;5059429;28;20039;-79
2021/10/13 00:14:57;;;;;;;2.33;2.13;;;8.60;99.50;;;;;;5064014;28;20048;-77
2021/10/13 00:17:23;;;;;;;3.25;2.47;;;8.60;99.50;;;;;;5060044;28;20032;-76
2021/10/13 00:19:48;;;;;;;3.13;2.45;;;8.60;99.50;;;;;;5059789;28;20431;-79
2021/10/13 00:22:14;;;;;;;2.10;1.95;;;8.60;99.50;;;;;;5068342;28;20485;-77
2021/10/13 00:24:39;;;;;;;2.97;1.92;;;8.50;99.40;;;;;;5062667;28;20043;-77
2021/10/13 00:27:05;;;;;;;3.40;2.67;;;8.50;99.40;;;;;;5065407;28;20029;-79
2021/10/13 00:29:30;;;;;;;5.88;2.17;;;8.50;99.30;;;;;;5053544;28;20734;-78
2021/10/13 00:31:56;;;;;;;5.28;2.90;;;8.50;99.30;;;;;;5062953;28;20093;-78
2021/10/13 00:34:21;;;;;;;3.08;2.50;;;8.40;99.30;;;;;;5056817;28;20033;-78
2021/10/13 00:36:47;;;;;;;2.88;2.35;;;8.40;99.30;;;;;;5062286;28;20065;-76
2021/10/13 00:39:12;;;;;;;5.57;2.63;;;8.30;99.50;;;;;;5055145;28;20032;-76
2021/10/13 00:41:38;;;;;;;5.38;2.53;;;8.30;99.50;;;;;;5068568;28;20504;-78
2021/10/13 00:44:04;;;;;;;3.33;2.60;;;8.30;99.60;;;;;;5068160;28;20040;-79
2021/10/13 00:46:29;;;;;;;4.22;2.60;;;8.20;99.60;;;;;;5062317;28;20058;-78
2021/10/13 00:48:55;;;;;;;4.80;2.92;;;8.20;99.90;;;;;;5063008;28;20086;-78
2021/10/13 00:51:20;;;;;;;3.15;2.40;;;8.20;99.90;;;;;;5056963;28;20492;-80
2021/10/13 00:53:46;;;;;;;3.72;3.08;;;8.10;99.90;;;;;;5067965;28;20049;-78
2021/10/13 00:56:11;;;;;;;4.78;2.72;;;8.10;99.90;;;;;;5057382;28;20112;-80
2021/10/13 00:58:37;;;;;;;7.18;2.70;;;8.10;99.90;;;;;;5050338;28;20033;-79
2021/10/13 01:01:29;;;;;;;3.45;2.65;;;8.10;99.90;;;;;;5055505;28;20400;-78
2021/10/13 01:04:21;;;;;;;4.10;2.85;;;8.10;99.90;;;;;;5052438;28;20498;-77
2021/10/13 01:07:15;;;;;;;5.03;3.08;;;8.10;99.90;;;;;;5058770;28;20056;-78
2021/10/13 01:09:54;;;;;;;5.80;2.97;;;8.10;99.90;;;;;;5058900;28;20032;-76
2021/10/13 01:12:57;;;;;;;4.72;3.08;;;8.10;99.90;;;;;;5064658;28;20040;-77
2021/10/13 01:16:04;;;;;;;4.30;3.45;;;8.10;99.90;;;;;;5058646;28;20043;-77
2021/10/13 01:18:47;;;;;;;5.25;3.33;;;8.00;99.90;;;;;;5061892;28;20032;-77
2021/10/13 01:21:20;;;;;;;;;;;8.00;99.90;;;;;;5056699;28;20401;-78
2021/10/13 01:24:13;;;;;;;4.60;3.15;;;8.00;99.90;;;;;;5060037;28;20060;-77
2021/10/13 01:27:10;;;;;;;3.08;2.50;;;8.00;99.90;;;;;;5056102;28;20039;-77
2021/10/13 01:29:38;;;;;;;6.20;2.95;;;8.00;99.90;;;;;;5059941;28;20028;-77
2021/10/13 01:32:11;;;;;;;5.43;2.85;;;7.90;99.90;;;;;;5055540;28;20060;-76
2021/10/13 01:34:39;;;;;;;;;;;7.90;99.90;;;;;;5054900;28;20476;-76
2021/10/13 01:37:14;;;;;;;5.40;2.72;;;7.90;99.90;;;;;;5059994;28;19911;-77
2021/10/13 01:39:42;;;;;;;7.68;2.75;;;7.90;99.90;;;;;;5056692;28;20033;-77
2021/10/13 01:42:10;;;;;;;7.97;2.58;;;7.90;99.90;;;;;;5063595;28;20067;-77
2021/10/13 01:44:37;;;;;;;6.57;2.72;;;7.80;99.90;;;;;;5069275;28;20056;-76
2021/10/13 01:47:05;;;;;;;4.32;2.88;;;7.80;99.90;;;;;;5054083;28;20029;-76
2021/10/13 01:49:33;;;;;;;5.72;2.90;;;7.80;99.90;;;;;;5061889;28;20121;-77
2021/10/13 01:52:01;;;;;;;9.27;3.53;;;7.80;99.90;;;;;;5075693;28;20485;-77
2021/10/13 01:54:27;;;;;;;3.42;2.75;;;7.70;99.90;;;;;;5056181;28;20045;-78
2021/10/13 01:56:53;;;;;;;4.93;3.25;;;7.70;99.90;;;;;;5049132;28;20108;-78
2021/10/13 01:59:21;;;;;;;6.93;3.53;;;7.70;99.90;;;;;;5059586;28;20534;-77
2021/10/13 02:01:49;;;;;;;7.55;3.35;;;7.70;99.90;;;;;;5075321;28;20044;-76
2021/10/13 02:04:16;;;;;;;5.28;3.28;;;7.70;99.90;;;;;;5059925;28;20033;-77
2021/10/13 02:06:43;;;;;;;4.22;3.05;;;7.60;99.90;;;;;;5056385;28;20024;-78
2021/10/13 02:09:09;;;;;;;3.67;3.08;;;7.60;99.90;;;;;;5053890;28;20071;-78
2021/10/13 02:11:35;;;;;;;3.53;3.13;;;7.60;99.90;;;;;;5055818;28;20104;-79
2021/10/13 02:14:11;;;;;;;3.78;3.03;;;7.60;99.90;;;;;;5058884;28;20139;-80
2021/10/13 02:16:39;;;;;;;5.80;3.25;;;7.60;99.90;;;;;;5052978;28;20074;-78
2021/10/13 02:19:06;;;;;;;8.48;3.95;;;7.60;99.90;;;;;;5060833;28;20032;-78
2021/10/13 02:21:35;;;;;;;3.33;3.03;;;7.60;99.90;;;;;;5062384;28;20032;-80
2021/10/13 02:24:02;;;;;;;6.22;3.28;;;7.60;99.90;;;;;;5059392;28;20032;-78
2021/10/13 02:26:34;;;;;;;5.28;3.63;;;7.60;99.90;;;;;;5069223;28;20133;-76
2021/10/13 02:29:22;;;;;;;7.40;3.83;;;7.60;99.90;;;;;;5058445;28;20111;-78
2021/10/13 02:31:47;;;;;;;3.70;3.00;;;7.60;99.90;;;;;;5065106;28;20774;-77
2021/10/13 02:34:14;;;;;;;6.50;3.28;;;7.60;99.90;;;;;;5057261;28;20025;-77
2021/10/13 02:36:40;;;;;;;4.95;3.10;;;7.60;99.90;;;;;;5065030;28;20102;-76
2021/10/13 02:39:06;;;;;;;6.10;3.95;;;7.60;99.90;;;;;;5062204;28;20029;-79
2021/10/13 02:41:33;;;;;;;4.57;3.72;;;7.60;99.90;;;;;;5056668;28;20718;-77
2021/10/13 02:43:58;;;;;;;4.07;3.13;;;7.60;99.90;;;;;;5063625;28;20485;-79
2021/10/13 02:46:48;;;;;;;5.63;2.92;;;7.60;99.90;;;;;;5073144;28;20056;-78
2021/10/13 02:49:32;;;;;;;6.15;3.15;;;7.50;99.90;;;;;;5058345;28;20377;-79
2021/10/13 02:52:27;;;;;;;6.15;3.38;;;7.50;99.90;;;;;;5065086;28;20031;-76
2021/10/13 02:54:59;;;;;;;3.95;3.40;;;7.50;99.90;;;;;;5053217;28;20045;-77
2021/10/13 02:57:34;;;;;;;4.23;2.37;;;7.40;99.90;;;;;;5054389;28;20029;-76
2021/10/13 03:00:05;;;;;;;5.53;3.70;;;7.40;99.90;;;;;;5076774;28;20281;-78
2021/10/13 03:02:36;;;;;;;5.60;3.35;;;7.40;99.90;;;;;;5057670;28;20047;-78
2021/10/13 03:05:02;;;;;;;11.23;3.65;;;7.30;99.90;;;;;;5068265;28;20394;-78
2021/10/13 03:07:36;;;;;;;7.82;4.90;;;7.30;99.90;;;;;;5063663;28;20025;-77
2021/10/13 03:10:03;;;;;;;8.57;4.72;;;7.30;99.90;;;;;;5052641;28;20595;-77
2021/10/13 03:12:35;;;;;;;4.70;3.75;;;7.30;99.90;;;;;;5057050;28;20040;-77
2021/10/13 03:15:01;;;;;;;7.82;3.83;;;7.30;99.90;;;;;;5059693;28;20530;-78
2021/10/13 03:17:28;;;;;;;6.97;4.00;;;7.20;99.90;;;;;;5051781;28;20037;-77
2021/10/13 03:19:55;;;;;;;5.43;3.90;;;7.20;99.90;;;;;;5057647;28;20036;-77
2021/10/13 03:22:22;;;;;;;5.22;4.10;;;7.30;99.90;;;;;;5062469;28;20041;-78
2021/10/13 03:24:48;;;;;;;4.30;3.42;;;7.30;99.90;;;;;;5064593;28;20415;-77
2021/10/13 03:27:13;;;;;;;5.70;3.65;;;7.30;99.90;;;;;;5067164;28;20128;-78
2021/10/13 03:29:42;;;;;;;4.90;4.40;;;7.30;99.90;;;;;;5061224;28;20032;-78
2021/10/13 03:32:09;;;;;;;6.40;3.95;;;7.30;99.90;;;;;;5064381;28;20059;-78
2021/10/13 03:34:34;;;;;;;9.05;4.82;;;7.30;99.90;;;;;;5063013;28;20499;-77
2021/10/13 03:37:00;;;;;;;15.23;4.78;;;7.30;99.90;;;;;;5064409;28;20032;-79
2021/10/13 03:39:26;;;;;;;7.82;4.57;;;7.30;99.90;;;;;;5061935;28;20029;-77
2021/10/13 03:41:51;;;;;;;10.50;5.28;;;7.20;99.90;;;;;;5058431;28;20113;-76
2021/10/13 03:44:19;;;;;;;9.10;5.03;;;7.20;99.90;;;;;;5061701;28;20064;-77
2021/10/13 03:46:45;;;;;;;7.05;4.65;;;7.20;99.90;;;;;;5062700;28;20103;-77
2021/10/13 03:49:11;;;;;;;6.97;5.22;;;7.20;99.90;;;;;;5069422;28;20529;-77
2021/10/13 03:51:36;;;;;;;18.10;5.60;;;7.20;99.90;;;;;;5061653;28;20104;-77
2021/10/13 03:54:03;;;;;;;9.80;4.38;;;7.20;99.90;;;;;;5061332;28;20029;-78
2021/10/13 03:56:32;;;;;;;8.20;5.18;;;7.20;99.90;;;;;;5060339;28;20037;-77
2021/10/13 03:58:58;;;;;;;8.98;5.03;;;7.20;99.90;;;;;;5068958;28;20039;-81
2021/10/13 04:01:23;;;;;;;10.18;6.07;;;7.20;99.90;;;;;;5058867;28;20032;-78
2021/10/13 04:03:49;;;;;;;10.40;5.57;;;7.20;99.90;;;;;;5060916;28;20040;-79
2021/10/13 04:06:14;;;;;;;7.72;5.05;;;7.20;99.90;;;;;;5064667;28;20107;-78
2021/10/13 04:08:40;;;;;;;12.75;6.10;;;7.20;99.90;;;;;;5070287;28;20032;-76
2021/10/13 04:11:05;;;;;;;9.98;6.60;;;7.20;99.90;;;;;;5060820;28;20040;-76
2021/10/13 04:13:31;;;;;;;11.13;5.95;;;7.20;99.90;;;;;;5057159;28;20035;-79
2021/10/13 04:15:56;;;;;;;8.38;6.00;;;7.20;99.90;;;;;;5062429;28;20548;-79
2021/10/13 04:18:22;;;;;;;12.65;6.60;;;7.20;99.90;;;;;;5060572;28;20037;-78
2021/10/13 04:20:47;;;;;;;9.75;5.78;;;7.20;99.90;;;;;;5066078;28;20078;-79
2021/10/13 04:23:13;;;;;;;11.73;6.78;;;7.20;99.90;;;;;;5070988;28;20078;-79
2021/10/13 04:25:38;;;;;;;14.52;6.90;;;7.20;99.90;;;;;;5071121;28;20039;-79
2021/10/13 04:28:04;;;;;;;11.77;7.40;;;7.20;99.90;;;;;;5069181;28;20056;-76
2021/10/13 04:30:30;;;;;;;13.50;6.88;;;7.20;99.90;;;;;;5069930;28;20040;-77
2021/10/13 04:32:56;;;;;;;11.13;6.95;;;7.20;99.90;;;;;;5063829;28;20171;-77
2021/10/13 04:35:22;;;;;;;10.18;6.00;;;7.20;99.90;;;;;;5058546;28;20039;-79
2021/10/13 04:37:47;;;;;;;13.27;7.97;;;7.20;99.90;;;;;;5061186;28;20044;-79
2021/10/13 04:40:13;;;;;;;15.05;7.70;;;7.20;99.90;;;;;;5026181;28;20026;-77
2021/10/13 04:42:39;;;;;;;13.45;7.10;;;7.20;99.90;;;;;;5027449;28;20025;-77
2021/10/13 04:45:05;;;;;;;16.10;7.18;;;7.20;99.90;;;;;;5027407;28;20041;-78
2021/10/13 04:47:31;;;;;;;15.73;8.43;;;7.10;99.90;;;;;;5042163;28;20496;-78
2021/10/13 04:49:56;;;;;;;18.30;8.35;;;7.20;99.90;;;;;;5042336;28;20075;-77
2021/10/13 04:52:22;;;;;;;14.57;8.23;;;7.20;99.90;;;;;;5046933;28;20035;-77
2021/10/13 04:54:47;;;;;;;13.95;8.10;;;7.20;99.90;;;;;;5025145;28;20159;-77
2021/10/13 04:57:13;;;;;;;15.23;8.13;;;7.10;99.90;;;;;;5013278;28;20497;-78
2021/10/13 04:59:38;;;;;;;14.90;7.90;;;7.10;99.90;;;;;;5022536;28;20044;-77
2021/10/13 05:02:04;;;;;;;13.73;7.47;;;7.10;99.90;;;;;;5030269;28;20665;-76
2021/10/13 05:04:30;;;;;;;15.38;8.35;;;7.10;99.90;;;;;;5023611;28;20851;-78
2021/10/13 05:06:56;;;;;;;16.08;8.38;;;7.10;99.90;;;;;;5020173;28;20163;-77
2021/10/13 05:09:21;;;;;;;18.80;8.38;;;7.10;99.90;;;;;;5024215;28;20034;-77
2021/10/13 05:11:47;;;;;;;16.48;8.43;;;7.10;99.90;;;;;;5025107;28;20178;-78
2021/10/13 05:14:13;;;;;;;19.30;8.80;;;7.10;99.90;;;;;;5027930;28;20501;-78
2021/10/13 05:16:40;;;;;;;17.83;8.77;;;7.10;99.90;;;;;;5038916;28;20033;-77
2021/10/13 05:19:07;;;;;;;19.90;9.52;;;7.00;99.90;;;;;;5022066;28;20026;-76
2021/10/13 05:21:32;;;;;;;20.85;9.68;;;7.00;99.90;;;;;;5023693;28;20415;-77
2021/10/13 05:23:58;;;;;;;21.60;9.85;;;7.00;99.90;;;;;;5021262;28;20042;-80
2021/10/13 05:26:24;;;;;;;20.73;10.27;;;7.00;99.90;;;;;;5024445;28;20397;-79
2021/10/13 05:28:49;;;;;;;22.05;9.18;;;7.00;99.90;;;;;;5022962;28;20510;-78
2021/10/13 05:31:15;;;;;;;20.88;9.70;;;6.90;99.90;;;;;;5022686;28;20060;-76
2021/10/13 05:33:40;;;;;;;21.10;10.52;;;6.90;99.90;;;;;;5019652;28;20108;-79
2021/10/13 05:36:06;;;;;;;22.33;9.65;;;6.90;99.90;;;;;;5007641;28;20034;-78
2021/10/13 05:38:31;;;;;;;20.48;9.65;;;7.00;99.90;;;;;;5015781;28;20037;-78
2021/10/13 05:40:57;;;;;;;23.33;10.75;;;7.00;99.90;;;;;;5023012;28;20045;-80
2021/10/13 05:43:22;;;;;;;26.83;11.65;;;7.00;99.90;;;;;;5024317;28;20049;-78
2021/10/13 05:45:48;;;;;;;21.88;10.60;;;7.00;99.90;;;;;;5018131;28;20121;-79
2021/10/13 05:48:14;;;;;;;23.55;12.55;;;7.00;99.90;;;;;;5011594;28;20367;-80
2021/10/13 05:50:40;;;;;;;22.00;11.57;;;7.00;99.90;;;;;;5017428;28;20021;-79
2021/10/13 05:53:06;;;;;;;23.25;10.45;;;7.10;99.90;;;;;;5022563;28;20045;-79
2021/10/13 05:55:32;;;;;;;29.02;11.07;;;7.10;99.90;;;;;;5031737;28;20021;-81
2021/10/13 05:58:01;;;;;;;33.45;11.82;;;7.10;99.90;;;;;;5013472;28;20048;-77
2021/10/13 06:00:28;;;;;;;26.08;12.10;;;7.10;99.90;;;;;;5039318;28;20036;-76
2021/10/13 06:02:53;;;;;;;22.30;11.52;;;7.10;99.90;;;;;;5024178;28;20490;-77
2021/10/13 06:05:19;;;;;;;26.27;13.23;;;7.10;99.90;;;;;;5013277;28;20049;-77
2021/10/13 06:07:44;;;;;;;23.85;11.27;;;7.10;99.90;;;;;;5020775;28;20475;-79
2021/10/13 06:10:10;;;;;;;35.88;13.65;;;7.10;99.90;;;;;;5021776;28;20037;-77
2021/10/13 06:12:36;;;;;;;27.23;12.90;;;7.10;99.90;;;;;;5015258;28;20643;-79
2021/10/13 06:15:02;;;;;;;26.08;13.20;;;7.10;99.90;;;;;;5017809;28;20021;-79
2021/10/13 06:17:27;;;;;;;23.80;12.80;;;7.20;99.90;;;;;;5014117;28;20132;-78
2021/10/13 06:19:54;;;;;;;27.45;14.55;;;7.10;99.90;;;;;;5021525;28;20117;-80
2021/10/13 06:22:19;;;;;;;29.88;13.88;;;7.20;99.90;;;;;;5016307;28;20038;-79
2021/10/13 06:24:45;;;;;;;29.25;14.05;;;7.20;99.90;;;;;;5013938;28;20069;-78
2021/10/13 06:27:10;;;;;;;120.85;26.85;;;7.20;99.90;;;;;;5019922;28;20052;-77
2021/10/13 06:29:36;;;;;;;330.85;60.95;;;7.20;99.90;;;;;;5024700;28;20125;-77
2021/10/13 06:32:02;;;;;;;37.05;16.73;;;7.30;99.90;;;;;;5020335;28;20034;-76
2021/10/13 06:34:27;;;;;;;33.88;16.85;;;7.30;99.90;;;;;;5014621;28;20033;-78
2021/10/13 06:36:52;;;;;;;28.55;14.65;;;7.30;99.90;;;;;;5019270;28;20406;-78
2021/10/13 06:39:18;;;;;;;32.72;13.82;;;7.40;99.90;;;;;;5025558;28;20033;-78
2021/10/13 06:41:44;;;;;;;25.40;13.77;;;7.40;99.90;;;;;;5016853;28;20033;-79
2021/10/13 06:44:12;;;;;;;27.70;13.27;;;7.30;99.90;;;;;;5035336;28;20021;-78
2021/10/13 06:46:39;;;;;;;26.17;13.75;;;7.40;99.90;;;;;;5022806;28;20037;-78
2021/10/13 06:49:04;;;;;;;26.98;13.27;;;7.40;99.90;;;;;;5016040;28;20030;-78
2021/10/13 06:51:30;;;;;;;25.73;14.35;;;7.50;99.90;;;;;;5015557;28;20022;-78
2021/10/13 06:53:55;;;;;;;26.60;12.93;;;7.40;99.90;;;;;;5018193;28;20029;-78
2021/10/13 06:56:21;;;;;;;24.02;13.02;;;7.50;99.90;;;;;;5028812;28;20042;-78
2021/10/13 06:58:46;;;;;;;27.65;13.20;;;7.60;99.90;;;;;;5023229;28;20113;-78
2021/10/13 07:01:12;;;;;;;24.08;13.15;;;7.60;99.90;;;;;;5016024;28;20069;-77
2021/10/13 07:03:37;;;;;;;25.65;14.10;;;7.60;99.90;;;;;;5013712;28;20068;-77
2021/10/13 07:06:03;;;;;;;25.83;12.30;;;7.70;99.90;;;;;;5016796;28;20037;-78
2021/10/13 07:08:28;;;;;;;31.10;14.20;;;7.70;99.90;;;;;;5022498;28;20709;-78
2021/10/13 07:10:54;;;;;;;31.27;15.35;;;7.70;99.90;;;;;;5027170;28;20045;-79
2021/10/13 07:13:19;;;;;;;22.63;13.48;;;7.80;99.90;;;;;;5021669;28;20145;-79
2021/10/13 07:15:45;;;;;;;22.83;13.75;;;7.80;99.90;;;;;;5025233;28;20045;-79
2021/10/13 07:18:10;;;;;;;24.58;13.35;;;7.90;99.90;;;;;;5021750;28;20041;-79
2021/10/13 07:20:36;;;;;;;19.90;12.10;;;7.90;99.90;;;;;;5013432;28;20407;-80
2021/10/13 07:23:02;;;;;;;24.42;12.43;;;8.00;99.90;;;;;;5026572;28;20038;-77
2021/10/13 07:25:28;;;;;;;23.33;13.45;;;7.90;99.90;;;;;;5033661;28;20033;-79
2021/10/13 07:27:54;;;;;;;19.80;12.20;;;8.00;99.90;;;;;;5028265;28;20023;-78
2021/10/13 07:30:23;;;;;;;18.58;12.10;;;7.90;99.90;;;;;;5015182;28;20033;-80
2021/10/13 07:32:51;;;;;;;18.25;12.05;;;8.00;99.90;;;;;;5023079;28;20021;-80
2021/10/13 07:35:17;;;;;;;19.63;11.32;;;8.00;99.90;;;;;;5018734;28;20115;-80
2021/10/13 07:37:42;;;;;;;17.98;11.68;;;8.00;99.90;;;;;;5027370;28;20432;-79
2021/10/13 07:40:09;;;;;;;18.02;11.10;;;8.10;99.90;;;;;;5028371;28;20033;-79
2021/10/13 07:42:35;;;;;;;15.05;10.32;;;8.20;99.90;;;;;;5019925;28;20033;-79
2021/10/13 07:45:01;;;;;;;14.65;10.88;;;8.20;99.90;;;;;;5027718;28;20032;-79
2021/10/13 07:47:27;;;;;;;13.13;9.65;;;8.20;99.90;;;;;;5026605;28;20030;-80
2021/10/13 07:49:52;;;;;;;16.88;10.90;;;8.20;99.90;;;;;;5014124;28;20060;-77
2021/10/13 07:52:18;;;;;;;13.50;9.95;;;8.30;99.90;;;;;;5027636;28;20041;-78
2021/10/13 07:54:44;;;;;;;14.25;10.23;;;8.30;99.90;;;;;;5020685;28;20030;-79
2021/10/13 07:57:10;;;;;;;17.73;10.45;;;8.30;99.90;;;;;;5028079;28;20042;-78
2021/10/13 07:59:35;;;;;;;13.32;8.98;;;8.40;99.90;;;;;;5021561;28;20028;-80
2021/10/13 08:02:03;;;;;;;13.75;9.75;;;8.40;99.90;;;;;;5020720;28;20025;-77
2021/10/13 08:04:29;;;;;;;12.73;8.95;;;8.40;99.90;;;;;;5033375;28;20117;-79
2021/10/13 08:06:55;;;;;;;17.02;9.27;;;8.40;99.90;;;;;;5020809;28;20022;-79
2021/10/13 08:09:20;;;;;;;17.90;9.57;;;8.40;99.90;;;;;;5024625;28;20032;-77
2021/10/13 08:11:46;;;;;;;13.85;9.65;;;8.40;99.90;;;;;;5029634;28;20021;-78
2021/10/13 08:14:12;;;;;;;12.70;9.38;;;8.30;99.90;;;;;;5025296;28;20064;-80
2021/10/13 08:16:38;;;;;;;13.90;9.60;;;8.40;99.90;;;;;;5026096;28;20057;-78
2021/10/13 08:19:04;;;;;;;16.63;8.60;;;8.40;99.90;;;;;;5025270;28;20029;-79
2021/10/13 08:21:30;;;;;;;10.75;8.27;;;8.40;99.90;;;;;;5027289;28;20041;-79
2021/10/13 08:23:55;;;;;;;12.95;9.55;;;8.50;99.90;;;;;;5025789;28;20018;-78
2021/10/13 08:26:21;;;;;;;12.98;8.27;;;8.60;99.90;;;;;;5028325;28;20045;-78
2021/10/13 08:28:46;;;;;;;11.80;8.82;;;8.70;99.90;;;;;;5026699;28;20498;-78
2021/10/13 08:31:14;;;;;;;11.40;8.30;;;8.80;99.90;;;;;;5020659;28;20109;-79
2021/10/13 08:33:40;;;;;;;12.55;8.20;;;8.90;99.90;;;;;;5027199;28;20025;-79
2021/10/13 08:36:06;;;;;;;11.43;8.13;;;8.90;99.90;;;;;;5019664;28;20032;-80
2021/10/13 08:38:31;;;;;;;12.73;7.90;;;8.90;99.90;;;;;;5020465;28;20514;-77
2021/10/13 08:40:57;;;;;;;10.10;7.43;;;9.00;99.90;;;;;;5023696;28;20188;-79
2021/10/13 08:43:22;;;;;;;12.65;8.65;;;9.00;99.90;;;;;;5026033;28;20392;-78
2021/10/13 08:45:48;;;;;;;12.35;8.77;;;9.00;99.90;;;;;;5025838;28;20033;-79
2021/10/13 08:48:14;;;;;;;12.32;9.20;;;9.10;99.90;;;;;;5009751;28;20033;-79
2021/10/13 08:50:39;;;;;;;11.80;8.73;;;9.10;99.90;;;;;;5017097;28;20036;-79
2021/10/13 08:53:11;;;;;;;13.00;8.13;;;9.20;99.90;;;;;;5022851;28;20096;-79
2021/10/13 08:55:39;;;;;;;12.57;8.25;;;9.30;99.90;;;;;;5033241;28;20041;-77
2021/10/13 08:58:19;;;;;;;12.02;7.78;;;9.40;99.90;;;;;;5017921;28;20037;-78
2021/10/13 09:01:02;;;;;;;11.35;8.15;;;9.50;99.90;;;;;;5019122;28;20037;-79
2021/10/13 09:03:35;;;;;;;10.85;8.43;;;9.50;99.90;;;;;;5021657;28;20045;-78
2021/10/13 09:06:18;;;;;;;13.77;8.30;;;9.50;99.60;;;;;;5049771;28;20148;-78
2021/10/13 09:09:04;;;;;;;12.40;8.45;;;9.60;99.50;;;;;;5024479;28;20037;-77
2021/10/13 09:11:47;;;;;;;12.45;9.07;;;9.50;99.90;;;;;;5026547;28;20029;-79
2021/10/13 09:14:29;;;;;;;14.23;8.80;;;9.50;99.70;;;;;;5026696;28;20029;-78
2021/10/13 09:17:03;;;;;;;12.95;9.15;;;9.50;99.50;;;;;;5031455;28;20050;-77
2021/10/13 09:19:36;;;;;;;15.43;8.80;;;9.50;99.50;;;;;;5021725;28;20091;-79
2021/10/13 09:22:14;;;;;;;13.27;8.82;;;9.60;99.60;;;;;;5025803;28;20734;-78
2021/10/13 09:24:42;;;;;;;12.55;9.55;;;9.70;99.60;;;;;;5018110;28;20062;-78
2021/10/13 09:27:30;;;;;;;12.27;9.05;;;9.80;99.30;;;;;;5015237;28;20518;-78
2021/10/13 09:30:01;;;;;;;11.90;8.93;;;9.90;98.90;;;;;;5019276;28;20037;-78
2021/10/13 09:32:27;;;;;;;11.60;8.52;;;10.00;98.80;;;;;;5040540;28;20033;-78
2021/10/13 09:34:57;;;;;;;8.90;8.00;;;10.00;98.30;;;;;;5028556;28;20710;-77
2021/10/13 09:37:23;;;;;;;9.40;7.85;;;10.00;98.50;;;;;;5022100;28;20052;-79
2021/10/13 09:40:00;;;;;;;10.45;7.35;;;10.10;98.70;;;;;;5022043;28;20389;-78
2021/10/13 09:42:26;;;;;;;8.13;6.93;;;10.30;98.40;;;;;;5018627;28;20088;-78
2021/10/13 09:44:59;;;;;;;7.25;6.40;;;10.40;97.90;;;;;;5013567;28;20041;-79
2021/10/13 09:47:32;;;;;;;9.77;6.60;;;10.40;97.40;;;;;;5017072;28;20030;-78
2021/10/13 09:49:58;;;;;;;8.63;5.95;;;10.50;97.70;;;;;;5024073;28;20038;-78
2021/10/13 09:52:27;;;;;;;10.07;6.57;;;10.60;97.60;;;;;;5019156;28;20032;-79
2021/10/13 09:54:59;;;;;;;7.47;6.22;;;10.70;97.60;;;;;;5018682;28;20041;-79
2021/10/13 09:57:30;;;;;;;7.63;6.20;;;10.70;97.20;;;;;;5011409;28;20018;-79
2021/10/13 10:00:11;;;;;;;6.90;5.20;;;10.80;96.60;;;;;;5015229;28;20722;-79
2021/10/13 10:02:40;;;;;;;6.00;4.45;;;10.90;96.90;;;;;;5023240;28;20033;-79
2021/10/13 10:05:14;;;;;;;8.30;5.35;;;11.10;96.50;;;;;;5023421;28;20558;-80
2021/10/13 10:07:46;;;;;;;6.85;4.60;;;11.30;97.10;;;;;;5022808;28;20021;-78
2021/10/13 10:10:14;;;;;;;5.40;4.00;;;11.40;96.10;;;;;;5017710;28;20033;-78
2021/10/13 10:13:02;;;;;;;4.78;4.18;;;11.60;95.50;;;;;;5024098;28;20450;-77
2021/10/13 10:15:46;;;;;;;5.57;3.22;;;11.80;95.90;;;;;;5020237;28;20145;-78
2021/10/13 10:18:26;;;;;;;6.70;2.72;;;12.00;95.10;;;;;;5016257;28;20029;-78
2021/10/13 10:20:52;;;;;;;3.15;2.83;;;12.10;94.90;;;;;;5024426;28;20394;-78
2021/10/13 10:23:29;;;;;;;2.95;2.65;;;12.20;94.40;;;;;;5025252;28;20037;-79
2021/10/13 10:25:56;;;;;;;4.45;2.20;;;12.30;93.40;;;;;;5025199;28;20505;-79
2021/10/13 10:28:50;;;;;;;3.35;2.47;;;12.40;93.30;;;;;;5026103;28;20017;-79
2021/10/13 10:31:30;;;;;;;3.78;2.80;;;12.50;93.30;;;;;;5023969;28;20033;-78
2021/10/13 10:34:10;;;;;;;3.65;1.92;;;12.50;93.40;;;;;;5024740;28;20176;-78
2021/10/13 10:36:35;;;;;;;5.00;2.60;;;12.50;93.40;;;;;;5023403;28;20371;-78
2021/10/13 10:39:03;;;;;;;3.75;2.05;;;12.70;93.60;;;;;;5020305;28;20544;-79
2021/10/13 10:41:42;;;;;;;3.00;1.55;;;12.90;93.30;;;;;;5022397;28;20471;-79
2021/10/13 10:44:26;;;;;;;1.73;1.33;;;13.00;92.70;;;;;;5020455;28;20072;-80
2021/10/13 10:47:13;;;;;;;1.85;1.40;;;13.10;91.60;;;;;;5022449;28;20056;-79
2021/10/13 10:49:51;;;;;;;3.20;1.70;;;13.20;92.00;;;;;;5014795;28;20025;-78
2021/10/13 10:52:26;;;;;;;6.20;2.55;;;13.10;92.00;;;;;;5007324;28;20030;-78
2021/10/13 10:55:00;;;;;;;3.35;1.98;;;13.10;91.80;;;;;;5021148;28;20017;-79
2021/10/13 10:57:35;;;;;;;4.85;2.35;;;13.00;91.90;;;;;;5029275;28;20108;-78
2021/10/13 11:00:04;;;;;;;2.25;2.05;;;12.80;91.90;;;;;;5027821;28;20043;-78
2021/10/13 11:02:31;;;;;;;2.08;1.83;;;12.60;92.00;;;;;;5026895;28;20068;-79
2021/10/13 11:05:10;;;;;;;2.95;1.60;;;12.40;91.80;;;;;;5027839;28;20493;-78
2021/10/13 11:07:37;;;;;;;2.60;1.95;;;12.30;92.30;;;;;;5009020;28;20837;-78
2021/10/13 11:10:08;;;;;;;3.97;1.55;;;12.20;92.40;;;;;;5017272;28;20033;-77
2021/10/13 11:12:52;;;;;;;2.38;1.65;;;12.10;92.10;;;;;;5035566;28;20043;-78
2021/10/13 11:15:22;;;;;;;2.42;1.60;;;12.00;92.30;;;;;;5028759;28;20067;-77
2021/10/13 11:17:48;;;;;;;4.20;1.50;;;12.00;92.70;;;;;;5025201;28;20327;-79
2021/10/13 11:20:25;;;;;;;2.60;1.48;;;12.10;92.30;;;;;;5028828;28;20393;-78
2021/10/13 11:23:02;;;;;;;4.05;1.40;;;12.30;92.40;;;;;;5021465;28;20037;-80
2021/10/13 11:25:28;;;;;;;2.72;1.60;;;12.40;91.70;;;;;;5023145;28;20044;-81
2021/10/13 11:28:08;;;;;;;4.05;1.23;;;12.60;91.80;;;;;;5024216;28;20399;-79
2021/10/13 11:30:45;;;;;;;3.10;1.40;;;12.80;91.20;;;;;;5011823;28;20021;-79
2021/10/13 11:33:13;;;;;;;4.60;1.00;;;13.00;91.70;;;;;;5018602;28;20034;-80
2021/10/13 11:35:39;;;;;;;2.30;1.42;;;13.20;90.60;;;;;;5025558;28;20401;-79
2021/10/13 11:38:14;;;;;;;3.85;1.48;;;13.30;90.20;;;;;;5027085;28;20021;-80
2021/10/13 11:40:40;;;;;;;1.20;0.90;;;13.50;90.20;;;;;;5028672;28;20367;-80
2021/10/13 11:43:11;;;;;;;1.10;0.90;;;13.60;90.10;;;;;;5028989;28;20092;-80
2021/10/13 11:45:46;;;;;;;7.97;1.08;;;13.80;89.70;;;;;;5029054;28;20195;-81
2021/10/13 11:48:11;;;;;;;1.27;0.90;;;14.00;88.70;;;;;;5047022;28;20056;-80
2021/10/13 11:50:39;;;;;;;2.03;0.70;;;14.10;88.60;;;;;;5024022;28;20030;-79
2021/10/13 11:53:05;;;;;;;1.77;1.23;;;14.40;87.90;;;;;;5026085;28;20120;-78
2021/10/13 11:55:33;;;;;;;1.50;0.95;;;14.60;87.00;;;;;;5017651;28;20121;-79
2021/10/13 11:58:01;;;;;;;1.70;0.75;;;14.70;87.00;;;;;;5027146;28;20060;-77
2021/10/13 12:00:30;;;;;;;1.75;1.00;;;14.70;86.80;;;;;;5028621;28;20037;-80
2021/10/13 12:03:11;;;;;;;1.88;0.93;;;14.60;85.10;;;;;;5027106;28;20532;-80
2021/10/13 12:05:42;;;;;;;1.15;0.80;;;14.50;86.00;;;;;;5033423;28;20565;-80
2021/10/13 12:08:13;;;;;;;1.20;0.85;;;14.40;85.70;;;;;;5028372;28;20044;-79
2021/10/13 12:10:50;;;;;;;1.27;0.80;;;14.10;87.00;;;;;;5028262;28;20033;-79
2021/10/13 12:13:27;;;;;;;0.60;0.60;;;14.10;86.80;;;;;;5037726;28;20179;-80
2021/10/13 12:16:05;;;;;;;1.00;0.70;;;14.10;86.40;;;;;;5018077;28;20068;-78
2021/10/13 12:18:36;;;;;;;1.70;0.82;;;14.30;86.60;;;;;;5027563;28;20048;-80
2021/10/13 12:21:01;;;;;;;2.58;0.80;;;14.40;87.20;;;;;;5028701;28;20557;-80
2021/10/13 12:23:28;;;;;;;4.50;0.98;;;14.50;88.50;;;;;;5028037;28;20045;-79
2021/10/13 12:25:54;;;;;;;2.53;0.90;;;14.60;86.40;;;;;;5028226;28;20120;-80
2021/10/13 12:28:24;;;;;;;2.00;0.98;;;14.50;85.50;;;;;;5026350;28;20121;-78
2021/10/13 12:31:01;;;;;;;1.67;0.80;;;14.40;84.70;;;;;;5028630;28;20040;-79
2021/10/13 12:33:27;;;;;;;1.13;0.70;;;14.30;85.40;;;;;;5029595;28;20486;-79
2021/10/13 12:36:08;;;;;;;1.50;0.95;;;14.30;85.00;;;;;;5028413;28;20025;-79
2021/10/13 12:38:44;;;;;;;1.65;0.90;;;14.20;84.20;;;;;;5026375;28;20490;-79
2021/10/13 12:41:10;;;;;;;1.58;0.85;;;14.10;85.20;;;;;;5018847;28;20034;-78
2021/10/13 12:43:42;;;;;;;1.25;1.00;;;14.00;84.60;;;;;;5021169;28;20037;-81
2021/10/13 12:46:22;;;;;;;3.08;0.80;;;13.90;85.10;;;;;;5020887;28;20045;-79
2021/10/13 12:48:49;;;;;;;1.65;0.90;;;13.90;84.10;;;;;;5028197;28;20497;-79
2021/10/13 12:51:17;;;;;;;1.45;0.60;;;13.80;82.30;;;;;;5027556;28;20068;-79
2021/10/13 12:53:44;;;;;;;2.20;0.90;;;13.70;83.10;;;;;;5026534;28;20065;-78
2021/10/13 12:56:11;;;;;;;2.10;1.25;;;13.60;82.10;;;;;;5024498;28;20060;-80
2021/10/13 12:58:37;;;;;;;1.05;0.70;;;13.60;82.60;;;;;;5022860;28;20165;-79